Lauderdale Isles, Florida
Current Conditions -  °F | °C
As of 11:53 AM on Sunday 23 Nov 2014 (Local Time) from KFLL Reporting Station
Broken Clouds Broken Clouds  
Wind Chill: 83°   Ceiling: 2400
Heat Index: 89°   Visibility: 10mi
Dew Point: 73°   Wind: 15mph
Humidity: 72%   Direction: 150°SSE
Pressure: 30"   Gusts: 26mph
Location:  26.0861°N, 80.1822°W
Report Text: KFLL 231653Z 15013G23KT 10SM BKN024 28/23 A3000 RMK AO2 SLP158 T02830228
Loading
Personal Weather Stations






























Interactive Weather Map New forecast layout! Learn more

10-Day Weather Forecast

Advertisements
Track Severe Weather on mobile